Time;durP1;ratioP1;P1;durP2;ratioP2;P2;SDS_P1;SDS_P2;PMS_P1;PMS_P2;Temp;Humidity;BMP_temperature;BMP_pressure;BME280_temperature;BME280_humidity;BME280_pressure;Samples;Min_cycle;Max_cycle;Signal;HPM_P1;HPM_P2
2022/04/28 00:00:59;;;;;;;7.82;4.40;;;;;;;;;;5077651;28;20016;-57
2022/04/28 00:03:25;;;;;;;6.85;4.47;;;;;;;;;;5069233;28;20025;-57
2022/04/28 00:05:51;;;;;;;7.70;4.78;;;;;;;;;;5064096;28;20025;-57
2022/04/28 00:08:17;;;;;;;11.27;5.20;;;;;;;;;;5075028;28;20036;-56
2022/04/28 00:10:43;;;;;;;8.05;4.13;;;;;;;;;;5058802;28;20025;-56
2022/04/28 00:13:12;;;;;;;9.88;4.75;;;;;;;;;;5072119;28;20037;-56
2022/04/28 00:15:38;;;;;;;7.00;4.10;;;;;;;;;;5066441;28;20081;-56
2022/04/28 00:18:04;;;;;;;6.78;3.90;;;;;;;;;;5070816;28;20017;-56
2022/04/28 00:20:30;;;;;;;8.60;4.00;;;;;;;;;;5062047;28;20032;-56
2022/04/28 00:22:56;;;;;;;6.35;4.43;;;;;;;;;;5058067;28;20021;-55
2022/04/28 00:25:23;;;;;;;8.60;4.70;;;;;;;;;;5068882;28;20039;-56
2022/04/28 00:27:49;;;;;;;7.72;4.97;;;;;;;;;;5047214;28;20035;-55
2022/04/28 00:30:15;;;;;;;7.68;4.82;;;;;;;;;;5063945;28;20032;-56
2022/04/28 00:32:41;;;;;;;7.20;4.65;;;;;;;;;;5065704;28;20025;-56
2022/04/28 00:35:07;;;;;;;9.10;4.60;;;;;;;;;;5063812;28;20033;-56
2022/04/28 00:37:34;;;;;;;9.75;4.90;;;;;;;;;;5064028;28;20021;-56
2022/04/28 00:40:01;;;;;;;9.70;5.15;;;;;;;;;;5079422;28;20024;-57
2022/04/28 00:42:27;;;;;;;14.80;5.15;;;;;;;;;;5074027;28;20028;-54
2022/04/28 00:44:54;;;;;;;8.05;5.13;;;;;;;;;;5082053;28;20036;-56
2022/04/28 00:47:22;;;;;;;9.27;5.13;;;;;;;;;;5076478;28;20488;-56
2022/04/28 00:52:33;;;;;;;8.77;4.90;;;;;;;;;;5071248;28;20094;-57
2022/04/28 00:54:59;;;;;;;12.65;4.05;;;;;;;;;;5087088;28;20051;-56
2022/04/28 00:57:26;;;;;;;7.97;5.00;;;;;;;;;;5066811;28;20028;-56
2022/04/28 00:59:53;;;;;;;9.95;4.60;;;;;;;;;;5069194;28;20025;-57
2022/04/28 01:02:19;;;;;;;9.88;4.93;;;;;;;;;;5064708;28;20032;-57
2022/04/28 01:04:46;;;;;;;11.23;4.90;;;;;;;;;;5066386;28;20033;-57
2022/04/28 01:07:12;;;;;;;7.63;4.38;;;;;;;;;;5063572;28;20041;-56
2022/04/28 01:09:40;;;;;;;6.40;4.20;;;;;;;;;;5075191;28;20033;-55
2022/04/28 01:12:07;;;;;;;6.88;4.30;;;;;;;;;;5058375;28;20025;-55
2022/04/28 01:14:33;;;;;;;6.43;4.00;;;;;;;;;;5068734;28;20040;-55
2022/04/28 01:17:00;;;;;;;9.38;4.30;;;;;;;;;;5078068;28;20024;-56
2022/04/28 01:19:27;;;;;;;7.20;5.10;;;;;;;;;;5066011;28;20025;-54
2022/04/28 01:21:52;;;;;;;7.45;4.40;;;;;;;;;;5079755;28;20047;-55
2022/04/28 01:24:19;;;;;;;7.65;4.22;;;;;;;;;;5076181;28;20481;-57
2022/04/28 01:26:45;;;;;;;8.15;4.57;;;;;;;;;;5063766;28;20032;-56
2022/04/28 01:29:11;;;;;;;10.10;4.65;;;;;;;;;;5076361;28;20163;-56
2022/04/28 01:31:37;;;;;;;10.57;5.25;;;;;;;;;;5079702;28;20078;-57
2022/04/28 01:34:03;;;;;;;7.65;4.40;;;;;;;;;;5066521;28;20481;-56
2022/04/28 01:36:29;;;;;;;7.55;4.50;;;;;;;;;;5063822;28;20035;-56
2022/04/28 01:38:55;;;;;;;10.65;4.47;;;;;;;;;;5083486;28;20511;-56
2022/04/28 01:41:21;;;;;;;10.13;5.30;;;;;;;;;;5071786;28;20035;-57
2022/04/28 01:43:47;;;;;;;7.78;4.72;;;;;;;;;;5072323;28;20021;-56
2022/04/28 01:46:13;;;;;;;9.93;5.43;;;;;;;;;;5070091;28;20024;-56
2022/04/28 01:48:39;;;;;;;6.07;3.88;;;;;;;;;;5070849;28;20082;-56
2022/04/28 01:56:34;;;;;;;9.45;4.88;;;;;;;;;;5062591;28;20036;-54
2022/04/28 01:59:00;;;;;;;10.30;5.32;;;;;;;;;;5057014;28;20033;-55
2022/04/28 02:01:26;;;;;;;9.73;5.20;;;;;;;;;;5063928;28;20025;-56
2022/04/28 02:03:52;;;;;;;12.13;5.60;;;;;;;;;;5082414;28;20028;-56
2022/04/28 02:06:18;;;;;;;10.95;5.18;;;;;;;;;;5070971;28;20468;-56
2022/04/28 02:08:46;;;;;;;9.88;4.95;;;;;;;;;;5075084;28;20487;-55
2022/04/28 02:11:12;;;;;;;9.35;5.22;;;;;;;;;;5057711;28;20021;-56
2022/04/28 02:13:38;;;;;;;10.73;6.13;;;;;;;;;;5069392;28;20032;-56
2022/04/28 02:16:04;;;;;;;9.43;5.00;;;;;;;;;;5061857;28;20021;-56
2022/04/28 02:18:30;;;;;;;8.68;6.15;;;;;;;;;;5077432;28;20723;-56
2022/04/28 02:20:56;;;;;;;13.82;6.68;;;;;;;;;;5080585;28;20074;-56
2022/04/28 02:23:22;;;;;;;11.60;5.93;;;;;;;;;;5078247;28;20073;-56
2022/04/28 02:25:48;;;;;;;14.80;5.80;;;;;;;;;;5080317;28;20023;-56
2022/04/28 02:28:14;;;;;;;7.47;5.03;;;;;;;;;;5072448;28;20537;-57
2022/04/28 02:30:40;;;;;;;11.23;6.85;;;;;;;;;;5060815;28;20028;-55
2022/04/28 02:33:09;;;;;;;11.82;6.13;;;;;;;;;;5066046;28;20032;-54
2022/04/28 02:35:35;;;;;;;9.98;6.03;;;;;;;;;;5079938;28;20081;-55
2022/04/28 02:38:01;;;;;;;10.85;5.38;;;;;;;;;;5073098;28;20516;-56
2022/04/28 02:40:27;;;;;;;8.52;5.22;;;;;;;;;;5066903;28;20108;-57
2022/04/28 02:42:53;;;;;;;8.98;5.22;;;;;;;;;;5069585;28;20024;-56
2022/04/28 02:45:19;;;;;;;10.88;5.57;;;;;;;;;;5075969;28;20511;-55
2022/04/28 02:47:45;;;;;;;9.73;5.88;;;;;;;;;;5070345;28;20025;-56
2022/04/28 02:50:11;;;;;;;9.82;5.95;;;;;;;;;;5065218;28;20112;-56
2022/04/28 02:52:41;;;;;;;11.25;6.00;;;;;;;;;;5080293;28;20052;-56
2022/04/28 02:55:07;;;;;;;10.48;6.05;;;;;;;;;;5064386;28;20032;-56
2022/04/28 02:57:34;;;;;;;10.70;5.78;;;;;;;;;;5065122;28;20067;-56
2022/04/28 03:00:01;;;;;;;10.07;5.78;;;;;;;;;;5068463;28;20529;-56
2022/04/28 03:02:27;;;;;;;8.30;5.00;;;;;;;;;;5058304;28;20482;-56
2022/04/28 03:04:53;;;;;;;9.40;5.15;;;;;;;;;;5065269;28;20047;-55
2022/04/28 03:12:49;;;;;;;12.00;6.65;;;;;;;;;;5068576;28;20043;-56
2022/04/28 03:15:14;;;;;;;10.57;6.05;;;;;;;;;;5060441;28;20020;-56
2022/04/28 03:17:40;;;;;;;13.35;6.53;;;;;;;;;;5066350;28;20468;-56
2022/04/28 03:20:07;;;;;;;11.35;6.72;;;;;;;;;;5082498;28;20388;-56
2022/04/28 03:22:33;;;;;;;10.85;6.47;;;;;;;;;;5057760;28;20484;-54
2022/04/28 03:24:59;;;;;;;11.55;6.13;;;;;;;;;;5064529;28;20024;-57
2022/04/28 03:27:27;;;;;;;12.43;6.50;;;;;;;;;;5064240;28;20040;-56
2022/04/28 03:29:53;;;;;;;10.63;6.13;;;;;;;;;;5062734;28;20484;-56
2022/04/28 03:32:19;;;;;;;12.88;5.53;;;;;;;;;;5084612;28;20471;-57
2022/04/28 03:34:45;;;;;;;11.88;5.70;;;;;;;;;;5062139;28;20028;-56
2022/04/28 03:37:11;;;;;;;11.85;6.28;;;;;;;;;;5052726;28;20032;-57
2022/04/28 03:39:37;;;;;;;10.05;6.13;;;;;;;;;;5069354;28;20028;-56
2022/04/28 03:42:04;;;;;;;13.10;6.90;;;;;;;;;;5061018;28;20496;-57
2022/04/28 03:44:30;;;;;;;17.98;6.68;;;;;;;;;;5080288;28;20033;-57
2022/04/28 03:46:56;;;;;;;12.60;7.03;;;;;;;;;;5063389;28;20089;-54
2022/04/28 03:49:22;;;;;;;12.45;6.68;;;;;;;;;;5061081;28;20035;-56
2022/04/28 03:51:48;;;;;;;11.93;6.63;;;;;;;;;;5083822;28;20098;-56
2022/04/28 03:54:14;;;;;;;9.75;6.03;;;;;;;;;;5055542;28;20025;-55
2022/04/28 03:56:40;;;;;;;10.80;6.25;;;;;;;;;;5076956;28;20028;-57
2022/04/28 03:59:06;;;;;;;10.70;6.00;;;;;;;;;;5077534;28;20013;-57
2022/04/28 04:01:32;;;;;;;10.98;6.35;;;;;;;;;;5067705;28;20051;-57
2022/04/28 04:03:58;;;;;;;14.18;6.10;;;;;;;;;;5059535;28;20031;-56
2022/04/28 04:06:24;;;;;;;11.43;6.25;;;;;;;;;;5071349;28;20358;-56
2022/04/28 04:08:50;;;;;;;13.60;6.85;;;;;;;;;;5068718;28;20044;-55
2022/04/28 04:11:16;;;;;;;11.35;6.30;;;;;;;;;;5068928;28;20020;-56
2022/04/28 04:13:42;;;;;;;9.13;5.75;;;;;;;;;;5069590;28;20428;-56
2022/04/28 04:16:08;;;;;;;11.55;6.53;;;;;;;;;;5060170;28;20053;-56
2022/04/28 04:18:34;;;;;;;12.27;6.35;;;;;;;;;;5068182;28;20025;-56
2022/04/28 04:21:00;;;;;;;11.98;6.35;;;;;;;;;;5082297;28;20032;-53
2022/04/28 04:23:26;;;;;;;10.43;5.85;;;;;;;;;;5066532;28;20087;-52
2022/04/28 04:25:52;;;;;;;15.45;6.18;;;;;;;;;;5057532;28;20050;-52
2022/04/28 04:28:18;;;;;;;13.05;6.53;;;;;;;;;;5064421;28;20424;-51
2022/04/28 04:33:29;;;;;;;10.85;7.05;;;;;;;;;;5063655;28;20102;-52
2022/04/28 04:35:55;;;;;;;11.20;7.13;;;;;;;;;;5052524;28;20028;-55
2022/04/28 04:38:21;;;;;;;12.23;6.97;;;;;;;;;;5072259;28;20028;-53
2022/04/28 04:40:46;;;;;;;13.88;7.40;;;;;;;;;;5053772;28;20055;-51
2022/04/28 04:43:15;;;;;;;13.13;7.15;;;;;;;;;;5062706;28;20534;-52
2022/04/28 04:45:44;;;;;;;12.75;7.25;;;;;;;;;;5057230;28;20029;-54
2022/04/28 04:48:11;;;;;;;11.93;7.45;;;;;;;;;;5067132;28;20032;-54
2022/04/28 04:50:37;;;;;;;13.30;7.43;;;;;;;;;;5057885;28;20028;-53
2022/04/28 04:53:06;;;;;;;14.43;7.70;;;;;;;;;;5056651;28;20479;-54
2022/04/28 04:55:33;;;;;;;14.40;8.10;;;;;;;;;;5060019;28;20452;-51
2022/04/28 04:57:59;;;;;;;14.10;7.20;;;;;;;;;;5067985;28;20036;-53
2022/04/28 05:00:25;;;;;;;11.57;6.93;;;;;;;;;;5071378;28;20039;-54
2022/04/28 05:02:51;;;;;;;11.80;6.82;;;;;;;;;;5073424;28;20035;-52
2022/04/28 05:05:17;;;;;;;12.75;7.45;;;;;;;;;;5071984;28;20036;-55
2022/04/28 05:07:43;;;;;;;14.60;7.70;;;;;;;;;;5065603;28;20152;-51
2022/04/28 05:10:09;;;;;;;13.23;7.55;;;;;;;;;;5061682;28;20044;-51
2022/04/28 05:12:35;;;;;;;15.60;8.30;;;;;;;;;;5067462;28;20191;-51
2022/04/28 05:15:01;;;;;;;14.82;7.43;;;;;;;;;;5063740;28;20031;-51
2022/04/28 05:17:27;;;;;;;17.02;8.82;;;;;;;;;;5053601;28;20449;-53
2022/04/28 05:19:57;;;;;;;15.48;8.02;;;;;;;;;;5052064;28;20025;-53
2022/04/28 05:22:23;;;;;;;14.82;7.78;;;;;;;;;;5039058;28;20013;-53
2022/04/28 05:24:49;;;;;;;13.13;7.72;;;;;;;;;;5079699;28;20043;-53
2022/04/28 05:27:15;;;;;;;16.83;8.77;;;;;;;;;;5072927;28;20024;-51
2022/04/28 05:29:41;;;;;;;14.07;8.35;;;;;;;;;;5072595;28;20029;-54
2022/04/28 05:32:08;;;;;;;16.08;8.52;;;;;;;;;;5085574;28;20032;-52
2022/04/28 05:34:34;;;;;;;15.90;8.02;;;;;;;;;;5086739;28;20024;-53
2022/04/28 05:37:00;;;;;;;16.30;8.63;;;;;;;;;;5064594;28;20146;-54
2022/04/28 05:39:26;;;;;;;14.48;7.50;;;;;;;;;;5086732;28;20704;-51
2022/04/28 05:41:52;;;;;;;15.63;8.10;;;;;;;;;;5069401;28;20094;-52
2022/04/28 05:47:03;;;;;;;14.30;7.88;;;;;;;;;;5064062;28;20079;-54
2022/04/28 05:49:31;;;;;;;16.92;8.82;;;;;;;;;;5071333;28;20024;-53
2022/04/28 05:51:57;;;;;;;15.18;7.72;;;;;;;;;;5085850;28;20480;-55
2022/04/28 05:54:23;;;;;;;14.68;7.80;;;;;;;;;;5061431;28;20456;-55
2022/04/28 05:56:49;;;;;;;11.40;7.45;;;;;;;;;;5081535;28;20036;-54
2022/04/28 05:59:16;;;;;;;14.90;7.95;;;;;;;;;;5081723;28;20470;-54
2022/04/28 06:01:42;;;;;;;13.13;7.70;;;;;;;;;;5059903;28;20504;-52
2022/04/28 06:04:08;;;;;;;13.10;8.07;;;;;;;;;;5076830;28;20100;-53
2022/04/28 06:06:34;;;;;;;19.77;8.35;;;;;;;;;;5073596;28;20025;-54
2022/04/28 06:09:00;;;;;;;14.30;7.00;;;;;;;;;;5055466;28;20056;-53
2022/04/28 06:11:26;;;;;;;10.10;6.25;;;;;;;;;;5057207;28;20040;-53
2022/04/28 06:13:52;;;;;;;11.73;6.80;;;;;;;;;;5076166;28;20147;-51
2022/04/28 06:16:18;;;;;;;13.18;7.25;;;;;;;;;;5073670;28;20025;-53
2022/04/28 06:18:44;;;;;;;11.73;6.72;;;;;;;;;;5090194;28;20038;-53
2022/04/28 06:21:10;;;;;;;15.50;7.22;;;;;;;;;;5082498;28;20036;-54
2022/04/28 06:23:36;;;;;;;11.43;6.72;;;;;;;;;;5092850;28;20035;-54
2022/04/28 06:26:02;;;;;;;16.27;7.93;;;;;;;;;;5078217;28;20157;-53
2022/04/28 06:28:28;;;;;;;11.70;6.72;;;;;;;;;;5092829;28;20020;-55
2022/04/28 06:30:55;;;;;;;13.15;7.07;;;;;;;;;;5075604;28;20047;-52
2022/04/28 06:33:21;;;;;;;12.35;7.30;;;;;;;;;;5079417;28;20112;-53
2022/04/28 06:35:47;;;;;;;11.27;6.65;;;;;;;;;;5074047;28;20165;-54
2022/04/28 06:38:13;;;;;;;11.10;6.32;;;;;;;;;;5064508;28;20063;-54
2022/04/28 06:40:39;;;;;;;18.30;7.28;;;;;;;;;;5088240;28;20027;-54
2022/04/28 06:43:05;;;;;;;12.18;7.50;;;;;;;;;;5090226;28;20174;-54
2022/04/28 06:45:31;;;;;;;12.00;6.88;;;;;;;;;;5082499;28;20475;-55
2022/04/28 06:47:57;;;;;;;10.63;6.65;;;;;;;;;;5080725;28;20025;-54
2022/04/28 06:50:23;;;;;;;14.35;6.65;;;;;;;;;;5065097;28;20389;-54
2022/04/28 06:52:49;;;;;;;11.80;6.68;;;;;;;;;;5072149;28;20131;-55
2022/04/28 06:55:15;;;;;;;15.65;7.30;;;;;;;;;;5092276;28;20028;-52
2022/04/28 06:57:41;;;;;;;15.05;6.78;;;;;;;;;;5084927;28;20044;-52
2022/04/28 07:00:08;;;;;;;13.85;6.72;;;;;;;;;;5075527;28;20037;-54
2022/04/28 07:02:35;;;;;;;13.23;6.32;;;;;;;;;;5085991;28;20031;-54
2022/04/28 07:05:01;;;;;;;13.98;6.47;;;;;;;;;;5079824;28;20034;-54
2022/04/28 07:07:27;;;;;;;12.95;7.25;;;;;;;;;;5076422;28;20039;-55
2022/04/28 07:09:53;;;;;;;12.63;6.75;;;;;;;;;;5091600;28;20024;-54
2022/04/28 07:12:19;;;;;;;13.63;6.38;;;;;;;;;;5078908;28;20414;-54
2022/04/28 07:14:45;;;;;;;10.40;6.03;;;;;;;;;;5083489;28;20095;-55
2022/04/28 07:17:11;;;;;;;11.48;6.22;;;;;;;;;;5065312;28;20035;-55
2022/04/28 07:19:37;;;;;;;11.18;5.80;;;;;;;;;;5091948;28;20020;-55
2022/04/28 07:22:05;;;;;;;13.10;6.25;;;;;;;;;;5091453;28;20094;-55
2022/04/28 07:24:35;;;;;;;11.52;6.65;;;;;;;;;;5092047;28;20043;-53
2022/04/28 07:27:02;;;;;;;9.55;5.82;;;;;;;;;;5085876;28;20110;-55
2022/04/28 07:29:28;;;;;;;9.48;5.97;;;;;;;;;;5075969;28;20043;-55
2022/04/28 07:31:54;;;;;;;9.65;5.55;;;;;;;;;;5063932;28;20072;-55
2022/04/28 07:34:20;;;;;;;14.18;6.07;;;;;;;;;;5067254;28;20111;-55
2022/04/28 07:36:46;;;;;;;8.45;4.75;;;;;;;;;;5076311;28;20094;-55
2022/04/28 07:39:12;;;;;;;8.23;4.97;;;;;;;;;;5072373;28;20032;-52
2022/04/28 07:41:38;;;;;;;9.85;4.95;;;;;;;;;;5083935;28;20032;-55
2022/04/28 07:44:04;;;;;;;12.50;5.38;;;;;;;;;;5075482;28;20025;-55
2022/04/28 07:46:30;;;;;;;11.77;5.15;;;;;;;;;;5077612;28;20087;-54
2022/04/28 07:48:56;;;;;;;8.45;4.68;;;;;;;;;;5073858;28;20036;-55
2022/04/28 07:51:22;;;;;;;13.50;4.80;;;;;;;;;;5069408;28;20051;-55
2022/04/28 07:53:48;;;;;;;10.32;4.35;;;;;;;;;;5036063;28;20037;-55
2022/04/28 07:56:14;;;;;;;11.20;4.40;;;;;;;;;;5072057;28;20142;-54
2022/04/28 07:58:42;;;;;;;9.07;4.47;;;;;;;;;;5071892;28;20033;-55
2022/04/28 08:01:08;;;;;;;7.13;4.72;;;;;;;;;;5072836;28;20028;-53
2022/04/28 08:03:34;;;;;;;10.10;4.57;;;;;;;;;;5081960;28;20580;-55
2022/04/28 08:06:01;;;;;;;8.20;4.13;;;;;;;;;;5074687;28;20024;-54
2022/04/28 08:08:27;;;;;;;8.52;3.70;;;;;;;;;;5074573;28;20029;-55
2022/04/28 08:10:53;;;;;;;9.60;3.80;;;;;;;;;;5078653;28;20053;-55
2022/04/28 08:13:19;;;;;;;9.52;3.38;;;;;;;;;;5090906;28;20028;-55
2022/04/28 08:15:45;;;;;;;10.52;3.30;;;;;;;;;;5069960;28;20041;-55
2022/04/28 08:18:11;;;;;;;6.68;3.40;;;;;;;;;;5083435;28;20225;-55
2022/04/28 08:20:40;;;;;;;7.22;2.70;;;;;;;;;;5069136;28;20029;-55
2022/04/28 08:23:06;;;;;;;5.80;2.70;;;;;;;;;;5081206;28;20036;-55
2022/04/28 08:25:32;;;;;;;8.20;2.70;;;;;;;;;;5066821;28;20025;-56
2022/04/28 08:27:58;;;;;;;11.90;3.55;;;;;;;;;;5068510;28;20036;-53
2022/04/28 08:30:24;;;;;;;9.60;3.53;;;;;;;;;;5076308;28;20090;-56
2022/04/28 08:32:50;;;;;;;10.25;3.58;;;;;;;;;;5072727;28;20032;-54
2022/04/28 08:35:16;;;;;;;7.53;3.63;;;;;;;;;;5069304;28;20514;-56
2022/04/28 08:37:42;;;;;;;7.72;4.05;;;;;;;;;;5079378;28;20048;-56
2022/04/28 08:40:08;;;;;;;8.05;4.38;;;;;;;;;;5075664;28;20438;-55
2022/04/28 08:42:37;;;;;;;9.95;3.67;;;;;;;;;;5090622;28;20031;-55
2022/04/28 08:45:04;;;;;;;6.82;3.78;;;;;;;;;;5079321;28;20103;-55
2022/04/28 08:47:31;;;;;;;5.97;3.63;;;;;;;;;;5090525;28;20553;-56
2022/04/28 08:49:57;;;;;;;6.63;3.17;;;;;;;;;;5085556;28;20039;-55
2022/04/28 08:52:24;;;;;;;7.45;3.60;;;;;;;;;;5090216;28;20048;-55
2022/04/28 08:54:53;;;;;;;10.43;3.35;;;;;;;;;;5067016;28;20072;-55
2022/04/28 08:57:19;;;;;;;7.93;3.80;;;;;;;;;;5072230;28;20103;-55
2022/04/28 08:59:46;;;;;;;9.95;3.17;;;;;;;;;;5083331;28;20116;-56
2022/04/28 09:02:12;;;;;;;6.95;3.58;;;;;;;;;;5090526;28;20036;-55
2022/04/28 09:04:38;;;;;;;7.28;3.78;;;;;;;;;;5089416;28;20024;-52
2022/04/28 09:07:06;;;;;;;5.90;3.72;;;;;;;;;;5055425;28;20032;-56
2022/04/28 09:09:33;;;;;;;8.38;3.55;;;;;;;;;;5079920;28;20032;-55
2022/04/28 09:12:00;;;;;;;8.02;3.30;;;;;;;;;;5087248;28;20035;-54
2022/04/28 09:14:27;;;;;;;6.47;3.17;;;;;;;;;;5087917;28;20061;-55
2022/04/28 09:16:57;;;;;;;8.07;3.50;;;;;;;;;;5085655;28;20099;-56
2022/04/28 09:19:28;;;;;;;7.60;3.40;;;;;;;;;;5063541;28;20052;-56
2022/04/28 09:21:56;;;;;;;7.15;3.22;;;;;;;;;;5088978;28;20024;-55
2022/04/28 09:24:23;;;;;;;8.20;3.35;;;;;;;;;;5089600;28;20019;-55
2022/04/28 09:26:50;;;;;;;5.30;3.15;;;;;;;;;;5072373;28;20049;-56
2022/04/28 09:29:17;;;;;;;9.02;3.72;;;;;;;;;;5085598;28;20023;-57
2022/04/28 09:31:44;;;;;;;5.55;3.88;;;;;;;;;;5068038;28;20028;-56
2022/04/28 09:34:11;;;;;;;11.00;4.15;;;;;;;;;;5062019;28;20062;-56
2022/04/28 09:36:38;;;;;;;6.47;3.25;;;;;;;;;;5074969;28;20553;-56
2022/04/28 09:39:05;;;;;;;6.32;3.30;;;;;;;;;;5080590;28;20096;-56
2022/04/28 09:44:16;;;;;;;8.88;4.68;;;;;;;;;;5064881;28;20126;-56
2022/04/28 09:46:43;;;;;;;9.07;4.57;;;;;;;;;;5072764;28;20024;-56
2022/04/28 09:49:10;;;;;;;8.27;3.78;;;;;;;;;;5086848;28;20024;-56
2022/04/28 09:51:40;;;;;;;6.75;3.65;;;;;;;;;;5078893;28;20556;-56
2022/04/28 09:54:11;;;;;;;8.45;3.20;;;;;;;;;;5067212;28;20120;-56
2022/04/28 09:56:38;;;;;;;11.38;4.07;;;;;;;;;;5080139;28;20028;-56
2022/04/28 09:59:05;;;;;;;6.65;3.80;;;;;;;;;;5093698;28;20430;-57
2022/04/28 10:01:31;;;;;;;7.60;3.90;;;;;;;;;;5093412;28;20575;-55
2022/04/28 10:03:58;;;;;;;5.00;3.78;;;;;;;;;;5081244;28;20112;-54
2022/04/28 10:06:25;;;;;;;6.78;4.07;;;;;;;;;;5066888;28;20531;-56
2022/04/28 10:08:55;;;;;;;9.25;3.65;;;;;;;;;;5079520;28;20032;-53
2022/04/28 10:11:22;;;;;;;9.90;3.45;;;;;;;;;;5084391;28;20510;-56
2022/04/28 10:13:49;;;;;;;8.32;4.07;;;;;;;;;;5090702;28;20448;-55
2022/04/28 10:16:16;;;;;;;8.07;4.22;;;;;;;;;;5092794;28;20472;-56
2022/04/28 10:18:46;;;;;;;7.15;3.83;;;;;;;;;;5093017;28;20077;-56
2022/04/28 10:21:15;;;;;;;7.07;3.67;;;;;;;;;;5092959;28;20372;-54
2022/04/28 10:32:23;;;;;;;7.93;3.80;;;;;;;;;;5076660;28;20066;-55
2022/04/28 10:35:06;;;;;;;6.53;3.88;;;;;;;;;;5092515;28;20023;-56
2022/04/28 10:37:33;;;;;;;14.20;4.50;;;;;;;;;;5087109;28;20016;-56
2022/04/28 10:39:59;;;;;;;9.88;4.00;;;;;;;;;;5092047;28;20311;-56
2022/04/28 10:42:28;;;;;;;9.52;3.38;;;;;;;;;;5088850;28;20035;-56
2022/04/28 10:44:55;;;;;;;7.50;3.47;;;;;;;;;;5092750;28;20387;-56
2022/04/28 10:47:22;;;;;;;8.18;3.58;;;;;;;;;;5092531;28;20028;-56
2022/04/28 10:49:52;;;;;;;5.88;3.45;;;;;;;;;;5092059;28;20026;-55
2022/04/28 10:52:25;;;;;;;4.25;2.80;;;;;;;;;;5091888;28;20060;-57
2022/04/28 10:54:52;;;;;;;3.88;2.28;;;;;;;;;;5088821;28;20024;-54
2022/04/28 10:57:19;;;;;;;5.50;3.13;;;;;;;;;;5075033;28;20052;-55
2022/04/28 10:59:49;;;;;;;5.93;3.67;;;;;;;;;;5065073;28;20021;-56
2022/04/28 11:02:40;;;;;;;5.30;3.20;;;;;;;;;;5092043;28;20032;-56
2022/04/28 11:05:24;;;;;;;7.18;3.22;;;;;;;;;;5078630;28;20059;-55
2022/04/28 11:07:53;;;;;;;4.65;2.70;;;;;;;;;;5060995;28;20454;-57
2022/04/28 11:10:19;;;;;;;4.05;2.65;;;;;;;;;;5086992;28;20069;-56
2022/04/28 11:12:45;;;;;;;7.70;3.40;;;;;;;;;;5092073;28;20020;-57
2022/04/28 11:15:14;;;;;;;5.35;2.67;;;;;;;;;;5080792;28;20531;-56
2022/04/28 11:17:44;;;;;;;7.78;2.95;;;;;;;;;;5092384;28;20495;-56
2022/04/28 11:20:21;;;;;;;6.30;3.10;;;;;;;;;;5091371;28;20048;-56
2022/04/28 11:22:48;;;;;;;6.50;3.22;;;;;;;;;;5092206;28;20027;-57
2022/04/28 11:25:15;;;;;;;10.55;3.13;;;;;;;;;;5091421;28;20106;-57
2022/04/28 11:27:41;;;;;;;6.40;2.88;;;;;;;;;;5090888;28;20114;-56
2022/04/28 11:30:10;;;;;;;6.55;3.17;;;;;;;;;;5090112;28;20028;-55
2022/04/28 11:32:44;;;;;;;9.00;2.63;;;;;;;;;;5082749;28;20035;-56
2022/04/28 11:35:10;;;;;;;5.32;2.47;;;;;;;;;;5089528;28;20096;-57
2022/04/28 11:37:38;;;;;;;5.60;2.75;;;;;;;;;;5083372;28;20016;-57
2022/04/28 11:40:06;;;;;;;5.35;2.33;;;;;;;;;;5037814;28;20032;-55
2022/04/28 11:42:34;;;;;;;6.43;2.08;;;;;;;;;;5067875;28;20029;-56
2022/04/28 11:45:01;;;;;;;6.50;2.47;;;;;;;;;;5064776;28;20067;-56
2022/04/28 11:47:27;;;;;;;9.93;2.67;;;;;;;;;;5066678;28;20107;-56
2022/04/28 11:50:03;;;;;;;3.65;2.03;;;;;;;;;;5077992;28;20152;-56
2022/04/28 11:52:31;;;;;;;9.43;2.47;;;;;;;;;;5090874;28;20040;-54
2022/04/28 11:55:04;;;;;;;7.03;2.95;;;;;;;;;;5084239;28;20024;-56
2022/04/28 11:57:31;;;;;;;4.45;1.90;;;;;;;;;;5059358;28;20057;-57
2022/04/28 11:59:58;;;;;;;4.47;2.30;;;;;;;;;;5080973;28;20505;-55
2022/04/28 12:02:28;;;;;;;3.70;1.75;;;;;;;;;;5091206;28;20031;-55
2022/04/28 12:04:55;;;;;;;9.13;2.35;;;;;;;;;;5082378;28;20032;-55
2022/04/28 12:07:23;;;;;;;4.97;2.28;;;;;;;;;;5080783;28;20032;-56
2022/04/28 12:15:21;;;;;;;8.35;2.17;;;;;;;;;;5085462;28;20047;-56
2022/04/28 12:20:38;;;;;;;4.70;2.17;;;;;;;;;;5065546;28;20030;-56
2022/04/28 12:23:04;;;;;;;4.70;1.80;;;;;;;;;;5079829;28;20111;-57
2022/04/28 12:25:35;;;;;;;6.78;2.30;;;;;;;;;;5075967;28;20035;-57
2022/04/28 12:28:02;;;;;;;4.28;1.95;;;;;;;;;;5080099;28;20036;-58
2022/04/28 12:30:28;;;;;;;5.30;1.73;;;;;;;;;;5078343;28;20465;-55
2022/04/28 12:32:55;;;;;;;4.82;1.70;;;;;;;;;;5083597;28;20072;-55
2022/04/28 12:35:22;;;;;;;7.38;2.00;;;;;;;;;;5074631;28;20074;-55
2022/04/28 12:37:53;;;;;;;5.07;1.80;;;;;;;;;;5071974;28;20016;-55
2022/04/28 12:40:19;;;;;;;4.60;1.40;;;;;;;;;;5073422;28;20032;-54
2022/04/28 12:42:48;;;;;;;2.28;1.67;;;;;;;;;;5083693;28;20373;-54
2022/04/28 12:45:14;;;;;;;2.55;1.60;;;;;;;;;;5059909;28;20033;-55
2022/04/28 12:47:42;;;;;;;2.80;1.40;;;;;;;;;;5070745;28;20032;-54
2022/04/28 12:50:21;;;;;;;4.75;1.55;;;;;;;;;;5090120;28;20020;-55
2022/04/28 12:52:47;;;;;;;5.03;1.70;;;;;;;;;;5082492;28;20460;-53
2022/04/28 12:55:13;;;;;;;8.18;2.08;;;;;;;;;;5082357;28;20488;-55
2022/04/28 12:57:39;;;;;;;5.35;1.95;;;;;;;;;;5074298;28;20042;-54
2022/04/28 13:00:07;;;;;;;4.53;2.17;;;;;;;;;;5086743;28;20028;-54
2022/04/28 13:02:33;;;;;;;5.65;2.58;;;;;;;;;;5065601;28;20024;-57
2022/04/28 13:05:09;;;;;;;2.83;1.50;;;;;;;;;;5068706;28;20500;-56
2022/04/28 13:07:35;;;;;;;5.43;2.35;;;;;;;;;;5070048;28;20541;-55
2022/04/28 13:10:01;;;;;;;5.15;2.25;;;;;;;;;;5082424;28;20534;-54
2022/04/28 13:12:27;;;;;;;4.60;2.05;;;;;;;;;;5088987;28;20413;-54
2022/04/28 13:14:53;;;;;;;3.95;2.40;;;;;;;;;;5072558;28;20096;-55
2022/04/28 13:17:19;;;;;;;4.78;2.17;;;;;;;;;;5085645;28;20025;-55
2022/04/28 13:19:45;;;;;;;5.93;2.10;;;;;;;;;;5087698;28;20055;-55
2022/04/28 13:22:11;;;;;;;4.47;1.77;;;;;;;;;;5077812;28;20024;-55
2022/04/28 13:24:37;;;;;;;2.90;1.33;;;;;;;;;;5072325;28;20025;-56
2022/04/28 13:27:03;;;;;;;3.95;1.27;;;;;;;;;;5081033;28;20033;-56
2022/04/28 13:29:29;;;;;;;1.95;1.17;;;;;;;;;;5078933;28;20760;-56
2022/04/28 13:31:55;;;;;;;3.25;1.20;;;;;;;;;;5072340;28;20031;-56
2022/04/28 13:34:21;;;;;;;5.50;1.48;;;;;;;;;;5081106;28;20050;-56
2022/04/28 13:36:47;;;;;;;4.60;1.17;;;;;;;;;;5083335;28;20033;-55
2022/04/28 13:39:13;;;;;;;3.28;1.20;;;;;;;;;;5073631;28;20032;-56
2022/04/28 13:41:41;;;;;;;2.65;1.20;;;;;;;;;;5076777;28;20024;-56
2022/04/28 13:44:07;;;;;;;1.65;0.88;;;;;;;;;;5084144;28;20044;-55
2022/04/28 13:46:33;;;;;;;5.68;1.00;;;;;;;;;;5070917;28;20472;-56
2022/04/28 13:48:59;;;;;;;2.85;0.90;;;;;;;;;;5088783;28;20020;-56
2022/04/28 13:51:25;;;;;;;2.20;0.90;;;;;;;;;;5079378;28;20559;-55
2022/04/28 13:53:51;;;;;;;3.08;0.95;;;;;;;;;;5072770;28;20032;-56
2022/04/28 13:56:17;;;;;;;1.63;0.77;;;;;;;;;;5049494;28;20029;-56
2022/04/28 13:58:44;;;;;;;3.03;1.10;;;;;;;;;;5066037;28;20473;-55
2022/04/28 14:01:10;;;;;;;4.95;0.95;;;;;;;;;;5042307;28;20055;-56
2022/04/28 14:03:36;;;;;;;2.38;0.98;;;;;;;;;;5064954;28;20025;-54
2022/04/28 14:06:04;;;;;;;2.92;1.27;;;;;;;;;;5058170;28;20032;-55
2022/04/28 14:08:30;;;;;;;4.15;1.42;;;;;;;;;;5059325;28;20032;-55
2022/04/28 14:10:59;;;;;;;2.30;1.05;;;;;;;;;;5072591;28;20021;-55
2022/04/28 14:13:25;;;;;;;3.35;1.40;;;;;;;;;;5058928;28;20032;-55
2022/04/28 14:15:51;;;;;;;2.22;1.25;;;;;;;;;;5060811;28;20022;-56
2022/04/28 14:18:16;;;;;;;1.77;1.20;;;;;;;;;;5041082;28;20072;-56
2022/04/28 14:20:43;;;;;;;7.30;1.50;;;;;;;;;;5048221;28;20151;-56
2022/04/28 14:23:09;;;;;;;2.10;1.15;;;;;;;;;;5044035;28;20504;-56
2022/04/28 14:25:36;;;;;;;5.80;0.98;;;;;;;;;;5068710;28;20024;-56
2022/04/28 14:28:03;;;;;;;2.35;1.05;;;;;;;;;;5060487;28;20036;-56
2022/04/28 14:30:29;;;;;;;3.55;0.93;;;;;;;;;;5043488;28;20036;-55
2022/04/28 14:32:55;;;;;;;4.25;1.20;;;;;;;;;;5057658;28;20079;-54
2022/04/28 14:35:21;;;;;;;4.65;1.45;;;;;;;;;;5046703;28;20032;-55
2022/04/28 14:37:47;;;;;;;4.03;1.05;;;;;;;;;;5046840;28;20025;-55
2022/04/28 14:40:14;;;;;;;3.45;1.05;;;;;;;;;;5030998;28;20078;-56
2022/04/28 14:42:40;;;;;;;4.18;1.23;;;;;;;;;;5042702;28;20045;-56
2022/04/28 14:45:07;;;;;;;3.67;1.10;;;;;;;;;;5039845;28;20458;-51
2022/04/28 14:47:34;;;;;;;2.33;1.05;;;;;;;;;;5036427;28;20039;-54
2022/04/28 14:52:45;;;;;;;2.15;1.02;;;;;;;;;;5071873;28;20173;-56
2022/04/28 14:55:12;;;;;;;3.42;1.70;;;;;;;;;;5066514;28;20412;-55
2022/04/28 14:57:39;;;;;;;5.15;1.58;;;;;;;;;;5071166;28;20025;-55
2022/04/28 15:00:06;;;;;;;2.10;1.13;;;;;;;;;;5068939;28;20016;-53
2022/04/28 15:02:33;;;;;;;4.75;1.52;;;;;;;;;;5074051;28;20107;-56
2022/04/28 15:04:59;;;;;;;4.95;1.45;;;;;;;;;;5070645;28;20032;-55
2022/04/28 15:07:26;;;;;;;2.83;1.02;;;;;;;;;;5068415;28;20388;-56
2022/04/28 15:09:52;;;;;;;2.38;1.02;;;;;;;;;;5075151;28;20495;-55
2022/04/28 15:12:18;;;;;;;2.88;1.20;;;;;;;;;;5068224;28;20062;-55
2022/04/28 15:14:45;;;;;;;3.28;1.15;;;;;;;;;;5071494;28;20032;-54
2022/04/28 15:17:11;;;;;;;2.85;1.25;;;;;;;;;;5085727;28;20032;-54